createdAt,value
2022-07-29T00:02:36.786Z,2.00
2022-07-29T00:05:58.642Z,2.20
2022-07-29T00:09:22.588Z,2.65
2022-07-29T00:12:44.301Z,2.00
2022-07-29T00:16:06.244Z,2.10
2022-07-29T00:19:28.166Z,2.25
2022-07-29T00:22:50.019Z,1.98
2022-07-29T00:26:11.775Z,1.77
2022-07-29T00:29:34.946Z,2.28
2022-07-29T00:32:57.131Z,2.67
2022-07-29T00:36:19.026Z,2.30
2022-07-29T00:39:40.834Z,2.20
2022-07-29T00:43:02.904Z,2.60
2022-07-29T00:46:24.767Z,2.65
2022-07-29T00:49:46.802Z,2.70
2022-07-29T00:53:09.323Z,2.50
2022-07-29T00:56:31.794Z,2.40
2022-07-29T00:59:53.582Z,2.40
2022-07-29T01:03:15.492Z,2.47
2022-07-29T01:06:37.285Z,2.50
2022-07-29T01:09:59.862Z,2.47
2022-07-29T01:13:23.316Z,2.28
2022-07-29T01:16:54.144Z,2.97
2022-07-29T01:20:32.688Z,2.58
2022-07-29T01:24:20.195Z,3.08
2022-07-29T01:27:55.844Z,2.60
2022-07-29T01:31:25.328Z,3.00
2022-07-29T01:34:54.211Z,2.90
2022-07-29T01:38:24.168Z,2.90
2022-07-29T01:42:16.988Z,3.00
2022-07-29T01:45:43.910Z,2.90
2022-07-29T01:49:19.527Z,3.00
2022-07-29T01:52:50.547Z,3.05
2022-07-29T01:56:13.161Z,2.80
2022-07-29T01:59:37.201Z,2.85
2022-07-29T02:03:03.469Z,2.80
2022-07-29T02:06:26.780Z,2.80
2022-07-29T02:09:50.558Z,2.97
2022-07-29T02:13:13.971Z,3.50
2022-07-29T02:16:38.955Z,3.40
2022-07-29T02:20:05.035Z,3.17
2022-07-29T02:23:27.696Z,2.90
2022-07-29T02:26:52.108Z,3.17
2022-07-29T02:30:14.140Z,3.47
2022-07-29T02:33:38.289Z,3.22
2022-07-29T02:37:00.860Z,3.63
2022-07-29T02:40:22.636Z,2.75
2022-07-29T02:43:47.886Z,2.92
2022-07-29T02:47:20.203Z,2.83
2022-07-29T02:50:55.480Z,2.92
2022-07-29T02:54:46.842Z,3.03
2022-07-29T02:58:30.212Z,3.15
2022-07-29T03:01:53.179Z,3.33
2022-07-29T03:05:19.319Z,3.30
2022-07-29T03:08:41.990Z,3.10
2022-07-29T03:12:05.244Z,3.28
2022-07-29T03:15:27.930Z,2.90
2022-07-29T03:18:49.778Z,3.55
2022-07-29T03:22:12.662Z,3.20
2022-07-29T03:25:34.526Z,2.80
2022-07-29T03:28:56.480Z,2.80
2022-07-29T03:32:25.112Z,2.67
2022-07-29T03:35:48.453Z,3.15
2022-07-29T03:39:12.913Z,3.05
2022-07-29T03:42:38.933Z,3.35
2022-07-29T03:46:01.728Z,3.10
2022-07-29T03:49:25.700Z,3.70
2022-07-29T03:52:48.257Z,3.33
2022-07-29T03:56:16.400Z,3.40
2022-07-29T03:59:38.870Z,2.80
2022-07-29T04:03:01.029Z,3.20
2022-07-29T04:06:22.782Z,3.55
2022-07-29T04:09:44.552Z,3.25
2022-07-29T04:13:06.307Z,3.50
2022-07-29T04:16:28.226Z,3.40
2022-07-29T04:19:50.105Z,3.10
2022-07-29T04:23:12.138Z,3.50
2022-07-29T04:26:34.881Z,3.92
2022-07-29T04:29:57.630Z,3.67
2022-07-29T04:33:19.405Z,4.43
2022-07-29T04:36:41.141Z,3.33
2022-07-29T04:40:02.977Z,3.40
2022-07-29T04:43:24.706Z,3.95
2022-07-29T04:46:46.909Z,3.58
2022-07-29T04:50:09.795Z,3.92
2022-07-29T04:53:31.446Z,4.10
2022-07-29T04:56:53.351Z,4.15
2022-07-29T05:00:15.261Z,4.10
2022-07-29T05:03:36.939Z,4.47
2022-07-29T05:06:59.293Z,4.15
2022-07-29T05:10:20.964Z,3.55
2022-07-29T05:13:45.860Z,4.07
2022-07-29T05:17:09.020Z,3.40
2022-07-29T05:20:31.587Z,3.60
2022-07-29T05:23:53.304Z,3.08
2022-07-29T05:27:15.194Z,3.85
2022-07-29T05:30:37.083Z,3.83
2022-07-29T05:33:58.848Z,3.60
2022-07-29T05:37:20.997Z,3.45
2022-07-29T05:40:42.808Z,4.05
2022-07-29T05:44:04.518Z,4.07
2022-07-29T05:47:26.774Z,3.45
2022-07-29T05:50:48.548Z,3.83
2022-07-29T05:54:10.304Z,4.00
2022-07-29T05:57:33.089Z,3.95
2022-07-29T06:00:54.859Z,3.60
2022-07-29T06:04:17.112Z,4.63
2022-07-29T06:07:39.106Z,3.72
2022-07-29T06:11:12.070Z,4.57
2022-07-29T06:14:33.882Z,4.85
2022-07-29T06:18:00.169Z,3.80
2022-07-29T06:21:22.962Z,3.42
2022-07-29T06:24:44.989Z,4.28
2022-07-29T06:28:06.706Z,4.00
2022-07-29T06:31:28.489Z,4.60
2022-07-29T06:34:50.307Z,4.70
2022-07-29T06:38:29.971Z,3.90
2022-07-29T06:41:52.389Z,4.53
2022-07-29T06:45:19.978Z,3.78
2022-07-29T06:48:43.232Z,2.90
2022-07-29T06:52:05.350Z,3.80
2022-07-29T06:55:27.077Z,4.28
2022-07-29T06:58:48.842Z,3.72
2022-07-29T07:02:10.657Z,3.45
2022-07-29T07:05:32.482Z,3.15
2022-07-29T07:08:54.390Z,3.25
2022-07-29T07:12:16.201Z,3.78
2022-07-29T07:15:40.255Z,3.72
2022-07-29T07:19:02.333Z,4.15
2022-07-29T07:22:24.104Z,3.95
2022-07-29T07:25:46.071Z,4.28
2022-07-29T07:29:07.757Z,3.90
2022-07-29T07:32:29.713Z,3.63
2022-07-29T07:35:51.488Z,4.30
2022-07-29T07:39:13.246Z,5.10
2022-07-29T07:42:35.050Z,3.92
2022-07-29T07:45:56.869Z,4.53
2022-07-29T07:49:18.650Z,4.45
2022-07-29T07:52:55.812Z,4.82
2022-07-29T07:56:18.084Z,4.43
2022-07-29T07:59:40.349Z,4.00
2022-07-29T08:03:02.124Z,3.97
2022-07-29T08:06:25.884Z,4.10
2022-07-29T08:09:47.605Z,4.28
2022-07-29T08:13:11.288Z,4.13
2022-07-29T08:16:33.083Z,4.30
2022-07-29T08:19:55.365Z,3.95
2022-07-29T08:23:17.253Z,3.80
2022-07-29T08:26:39.059Z,3.45
2022-07-29T08:30:00.854Z,3.30
2022-07-29T08:33:22.615Z,3.70
2022-07-29T08:36:44.313Z,3.38
2022-07-29T08:40:12.414Z,3.35
2022-07-29T08:43:38.142Z,3.72
2022-07-29T08:46:59.911Z,3.58
2022-07-29T08:50:21.873Z,3.50
2022-07-29T08:53:45.843Z,3.47
2022-07-29T08:57:07.837Z,3.20
2022-07-29T09:00:31.122Z,4.03
2022-07-29T09:03:56.525Z,3.25
2022-07-29T09:07:19.763Z,3.10
2022-07-29T09:10:41.614Z,3.03
2022-07-29T09:14:03.663Z,3.50
2022-07-29T09:17:48.272Z,3.03
2022-07-29T09:21:30.501Z,2.88
2022-07-29T09:24:52.377Z,2.67
2022-07-29T09:28:17.483Z,3.00
2022-07-29T09:31:41.061Z,3.00
2022-07-29T09:35:23.479Z,3.15
2022-07-29T09:39:01.287Z,2.88
2022-07-29T09:42:30.531Z,2.38
2022-07-29T09:45:52.411Z,2.72
2022-07-29T09:49:15.143Z,2.80
2022-07-29T09:52:47.460Z,2.70
2022-07-29T09:56:11.520Z,2.40
2022-07-29T09:59:34.070Z,2.13
2022-07-29T10:03:03.391Z,2.85
2022-07-29T10:06:25.175Z,2.20
2022-07-29T10:09:57.904Z,2.80
2022-07-29T10:13:19.749Z,2.50
2022-07-29T10:16:41.770Z,2.30
2022-07-29T10:20:03.891Z,2.60
2022-07-29T10:23:25.641Z,2.53
2022-07-29T10:26:48.859Z,3.08
2022-07-29T10:30:13.512Z,2.45
2022-07-29T10:33:44.200Z,2.25
2022-07-29T10:37:20.876Z,2.53
2022-07-29T10:41:08.601Z,2.80
2022-07-29T10:44:31.256Z,2.72
2022-07-29T10:48:05.672Z,2.63
2022-07-29T10:51:53.989Z,2.60
2022-07-29T10:55:37.609Z,2.80
2022-07-29T10:59:22.745Z,2.60
2022-07-29T11:02:50.114Z,2.40
2022-07-29T11:06:12.820Z,3.45
2022-07-29T11:09:37.478Z,2.33
2022-07-29T11:13:00.201Z,2.28
2022-07-29T11:16:25.145Z,3.38
2022-07-29T11:19:52.078Z,3.05
2022-07-29T11:23:27.336Z,2.50
2022-07-29T11:27:21.826Z,2.20
2022-07-29T11:30:53.921Z,2.83
2022-07-29T11:34:45.803Z,2.05
2022-07-29T11:38:23.128Z,1.85
2022-07-29T11:41:45.061Z,2.50
2022-07-29T11:45:44.413Z,2.38
2022-07-29T11:49:00.407Z,2.40
2022-07-29T11:52:22.583Z,2.20
2022-07-29T11:55:51.609Z,2.50
2022-07-29T11:59:15.448Z,2.45
2022-07-29T12:02:48.366Z,1.92
2022-07-29T12:06:17.445Z,2.30
2022-07-29T12:09:41.704Z,2.00
2022-07-29T12:13:04.409Z,2.33
2022-07-29T12:16:39.000Z,2.28
2022-07-29T12:20:05.459Z,1.95
2022-07-29T12:23:29.470Z,2.40
2022-07-29T12:27:00.598Z,3.10
2022-07-29T12:30:22.449Z,2.55
2022-07-29T12:33:54.289Z,2.00
2022-07-29T12:37:16.218Z,2.38
2022-07-29T12:40:38.188Z,2.05
2022-07-29T12:43:59.905Z,2.03
2022-07-29T12:47:22.047Z,2.00
2022-07-29T12:50:58.329Z,2.20
2022-07-29T12:54:20.065Z,2.67
2022-07-29T12:57:51.481Z,2.90
2022-07-29T13:01:19.179Z,2.25
2022-07-29T13:04:41.065Z,2.28
2022-07-29T13:08:22.124Z,2.05
2022-07-29T13:11:51.014Z,1.98
2022-07-29T13:15:14.856Z,2.10
2022-07-29T13:18:37.549Z,2.03
2022-07-29T13:21:59.649Z,2.60
2022-07-29T13:25:30.497Z,2.08
2022-07-29T13:28:52.231Z,1.85
2022-07-29T13:32:14.795Z,2.20
2022-07-29T13:35:39.972Z,2.17
2022-07-29T13:39:03.466Z,2.10
2022-07-29T13:42:25.895Z,2.22
2022-07-29T13:45:47.707Z,2.30
2022-07-29T13:49:09.494Z,2.05
2022-07-29T13:52:31.485Z,2.15
2022-07-29T13:55:54.020Z,1.70
2022-07-29T13:59:15.789Z,1.70
2022-07-29T14:02:39.237Z,2.72
2022-07-29T14:06:01.342Z,1.70
2022-07-29T14:09:23.267Z,1.75
2022-07-29T14:12:45.042Z,1.55
2022-07-29T14:16:07.893Z,1.98
2022-07-29T14:19:29.654Z,1.83
2022-07-29T14:22:51.514Z,1.70
2022-07-29T14:26:13.328Z,1.95
2022-07-29T14:29:43.664Z,1.98
2022-07-29T14:33:05.431Z,1.70
2022-07-29T14:36:28.394Z,2.10
2022-07-29T14:39:50.238Z,1.60
2022-07-29T14:43:11.946Z,1.50
2022-07-29T14:46:33.845Z,1.80
2022-07-29T14:49:55.545Z,1.75
2022-07-29T14:53:17.607Z,1.98
2022-07-29T14:56:46.910Z,1.75
2022-07-29T15:00:10.197Z,1.90
2022-07-29T15:03:33.860Z,1.50
2022-07-29T15:06:55.725Z,1.90
2022-07-29T15:10:18.347Z,1.88
2022-07-29T15:13:40.762Z,1.92
2022-07-29T15:17:02.589Z,1.33
2022-07-29T15:20:27.923Z,1.67
2022-07-29T15:23:50.752Z,1.80
2022-07-29T15:27:15.000Z,1.58
2022-07-29T15:30:41.467Z,1.77
2022-07-29T15:34:06.000Z,1.80
2022-07-29T15:37:29.307Z,3.47
2022-07-29T15:41:14.777Z,1.88
2022-07-29T15:44:36.560Z,1.55
2022-07-29T15:47:58.422Z,1.88
2022-07-29T15:51:20.128Z,1.73
2022-07-29T15:54:41.790Z,1.65
2022-07-29T15:58:05.047Z,1.60
2022-07-29T16:01:27.002Z,1.92
2022-07-29T16:04:48.891Z,1.50
2022-07-29T16:08:10.762Z,1.80
2022-07-29T16:11:32.459Z,1.67
2022-07-29T16:14:54.305Z,1.58
2022-07-29T16:18:16.151Z,1.40
2022-07-29T16:21:38.777Z,1.95
2022-07-29T16:25:00.775Z,1.40
2022-07-29T16:28:22.596Z,2.72
2022-07-29T16:31:44.381Z,1.55
2022-07-29T16:35:07.469Z,1.67
2022-07-29T16:38:29.268Z,1.73
2022-07-29T16:41:51.167Z,1.80
2022-07-29T16:45:12.962Z,1.70
2022-07-29T16:48:35.403Z,1.55
2022-07-29T16:51:59.318Z,1.40
2022-07-29T16:55:21.364Z,1.35
2022-07-29T16:58:43.961Z,1.27
2022-07-29T17:02:06.014Z,1.40
2022-07-29T17:05:28.105Z,1.20
2022-07-29T17:08:49.788Z,1.10
2022-07-29T17:12:11.509Z,1.63
2022-07-29T17:15:36.443Z,1.40
2022-07-29T17:18:58.489Z,1.40
2022-07-29T17:22:20.352Z,1.33
2022-07-29T17:25:42.025Z,1.77
2022-07-29T17:29:03.828Z,1.38
2022-07-29T17:32:25.649Z,1.30
2022-07-29T17:36:05.939Z,1.30
2022-07-29T17:39:27.651Z,1.50
2022-07-29T17:42:49.602Z,1.77
2022-07-29T17:46:11.462Z,1.60
2022-07-29T17:49:33.649Z,1.58
2022-07-29T17:52:58.094Z,2.00
2022-07-29T17:56:19.930Z,1.90
2022-07-29T17:59:41.625Z,1.80
2022-07-29T18:03:03.480Z,1.95
2022-07-29T18:06:25.765Z,2.15
2022-07-29T18:09:47.495Z,1.95
2022-07-29T18:13:09.701Z,2.15
2022-07-29T18:16:31.612Z,1.58
2022-07-29T18:19:53.498Z,1.77
2022-07-29T18:23:16.700Z,1.92
2022-07-29T18:26:38.788Z,2.20
2022-07-29T18:30:04.558Z,1.95
2022-07-29T18:33:27.060Z,2.13
2022-07-29T18:36:48.850Z,2.40
2022-07-29T18:40:11.316Z,2.00
2022-07-29T18:43:33.165Z,2.03
2022-07-29T18:46:55.591Z,2.35
2022-07-29T18:50:19.235Z,1.70
2022-07-29T18:53:41.118Z,2.03
2022-07-29T18:57:55.392Z,2.00
2022-07-29T19:00:44.844Z,2.10
2022-07-29T19:04:06.579Z,3.08
2022-07-29T19:07:29.653Z,2.20
2022-07-29T19:10:51.472Z,2.10
2022-07-29T19:14:13.308Z,2.53
2022-07-29T19:17:35.098Z,1.80
2022-07-29T19:20:57.878Z,1.98
2022-07-29T19:24:19.648Z,2.15
2022-07-29T19:27:41.454Z,1.98
2022-07-29T19:31:03.547Z,2.10
2022-07-29T19:34:25.419Z,2.53
2022-07-29T19:37:47.226Z,2.55
2022-07-29T19:41:09.139Z,2.10
2022-07-29T19:44:30.884Z,2.20
2022-07-29T19:47:59.093Z,2.17
2022-07-29T19:51:23.539Z,1.77
2022-07-29T19:54:45.344Z,2.78
2022-07-29T19:58:07.785Z,2.17
2022-07-29T20:01:31.992Z,1.83
2022-07-29T20:04:53.794Z,1.90
2022-07-29T20:08:15.550Z,2.00
2022-07-29T20:11:38.750Z,2.30
2022-07-29T20:15:00.525Z,1.80
2022-07-29T20:18:22.289Z,1.88
2022-07-29T20:21:44.228Z,2.03
2022-07-29T20:25:09.621Z,2.15
2022-07-29T20:28:31.414Z,1.85
2022-07-29T20:31:56.376Z,2.00
2022-07-29T20:35:20.001Z,2.30
2022-07-29T20:38:42.466Z,2.22
2022-07-29T20:42:04.971Z,2.05
2022-07-29T20:45:26.751Z,2.30
2022-07-29T20:48:48.588Z,2.60
2022-07-29T20:52:10.396Z,2.17
2022-07-29T20:55:32.221Z,2.83
2022-07-29T20:58:54.173Z,2.53
2022-07-29T21:02:16.079Z,2.55
2022-07-29T21:05:38.233Z,2.10
2022-07-29T21:09:01.049Z,2.50
2022-07-29T21:12:22.879Z,3.20
2022-07-29T21:15:48.291Z,2.38
2022-07-29T21:19:10.090Z,2.90
2022-07-29T21:22:31.884Z,2.63
2022-07-29T21:25:54.224Z,3.00
2022-07-29T21:29:15.921Z,2.70
2022-07-29T21:32:37.717Z,2.95
2022-07-29T21:36:26.783Z,2.70
2022-07-29T21:39:42.629Z,2.38
2022-07-29T21:43:04.456Z,2.55
2022-07-29T21:46:26.225Z,2.92
2022-07-29T21:49:48.134Z,2.42
2022-07-29T21:53:12.840Z,2.75
2022-07-29T21:56:37.614Z,2.88
2022-07-29T22:00:02.764Z,2.90
2022-07-29T22:03:34.403Z,2.17
2022-07-29T22:06:57.889Z,2.67
2022-07-29T22:10:20.354Z,2.67
2022-07-29T22:13:42.116Z,2.78
2022-07-29T22:17:04.165Z,2.30
2022-07-29T22:20:26.225Z,2.80
2022-07-29T22:23:48.014Z,3.10
2022-07-29T22:27:10.050Z,2.67
2022-07-29T22:30:31.845Z,2.40
2022-07-29T22:33:53.927Z,2.63
2022-07-29T22:37:16.191Z,2.53
2022-07-29T22:40:38.354Z,2.60
2022-07-29T22:44:00.102Z,2.97
2022-07-29T22:47:46.468Z,2.90
2022-07-29T22:51:04.373Z,3.10
2022-07-29T22:54:28.223Z,3.25
2022-07-29T22:57:50.122Z,2.83
2022-07-29T23:01:12.203Z,2.58
2022-07-29T23:04:34.006Z,2.72
2022-07-29T23:07:55.979Z,3.13
2022-07-29T23:11:18.113Z,2.63
2022-07-29T23:14:39.860Z,2.92
2022-07-29T23:18:01.794Z,2.85
2022-07-29T23:21:23.698Z,3.17
2022-07-29T23:24:45.644Z,3.33
2022-07-29T23:28:11.487Z,2.72
2022-07-29T23:31:34.727Z,3.05
2022-07-29T23:35:05.507Z,2.83
2022-07-29T23:38:27.437Z,2.92
2022-07-29T23:41:49.263Z,3.10
2022-07-29T23:45:12.545Z,3.40
2022-07-29T23:48:34.411Z,3.20
2022-07-29T23:51:56.221Z,3.10
2022-07-29T23:55:36.744Z,4.03
2022-07-29T23:58:59.752Z,3.67
